Time;durP1;ratioP1;P1;durP2;ratioP2;P2;SDS_P1;SDS_P2;PMS_P1;PMS_P2;Temp;Humidity;BMP_temperature;BMP_pressure;BME280_temperature;BME280_humidity;BME280_pressure;Samples;Min_cycle;Max_cycle;Signal;HPM_P1;HPM_P2
2024/02/25 00:01:09;;;;;;;;;;;;;;;16.06;46.69;100949.50;4958823;29;1166;-43
2024/02/25 00:03:35;;;;;;;;;;;;;;;15.90;45.93;100943.41;4958340;29;1065;-44
2024/02/25 00:06:00;;;;;;;;;;;;;;;15.73;45.83;100944.50;4958752;29;1133;-48
2024/02/25 00:08:26;;;;;;;;;;;;;;;16.91;47.44;100945.47;4951533;29;1073;-42
2024/02/25 00:10:52;;;;;;;;;;;;;;;17.33;47.30;100941.66;4958686;29;1132;-44
2024/02/25 00:13:18;;;;;;;;;;;;;;;16.36;47.90;100937.75;4958183;29;1907;-45
2024/02/25 00:15:43;;;;;;;;;;;;;;;16.11;47.31;100939.44;4958244;29;1113;-47
2024/02/25 00:18:09;;;;;;;;;;;;;;;17.49;47.30;100938.69;4958597;29;1158;-44
2024/02/25 00:20:34;;;;;;;;;;;;;;;16.47;47.67;100939.66;4956840;29;908;-43
2024/02/25 00:23:00;;;;;;;;;;;;;;;16.12;47.18;100941.97;4958074;29;1042;-45
2024/02/25 00:25:25;;;;;;;;;;;;;;;15.86;46.61;100933.97;4958116;29;1105;-45
2024/02/25 00:27:51;;;;;;;;;;;;;;;17.56;47.26;100939.94;4957880;29;1144;-43
2024/02/25 00:30:16;;;;;;;;;;;;;;;16.66;47.91;100939.22;4958405;29;1038;-43
2024/02/25 00:32:42;;;;;;;;;;;;;;;16.28;47.33;100931.16;4949768;29;1133;-41
2024/02/25 00:35:08;;;;;;;;;;;;;;;15.93;47.08;100929.09;4958277;29;1968;-46
2024/02/25 00:37:33;;;;;;;;;;;;;;;15.82;46.62;100927.16;4958172;29;1084;-44
2024/02/25 00:39:58;;;;;;;;;;;;;;;17.52;47.51;100934.97;4958008;29;1435;-43
2024/02/25 00:42:24;;;;;;;;;;;;;;;16.97;47.79;100934.38;4959594;28;1220;-42
2024/02/25 00:44:50;;;;;;;;;;;;;;;16.25;47.78;100933.16;4958892;29;956;-45
2024/02/25 00:47:16;;;;;;;;;;;;;;;16.08;47.12;100929.03;4961961;29;1033;-47
2024/02/25 00:49:41;;;;;;;;;;;;;;;16.07;47.65;100927.31;4962486;29;1166;-45
2024/02/25 00:52:07;;;;;;;;;;;;;;;17.46;47.11;100928.28;4961804;29;1145;-42
2024/02/25 00:54:33;;;;;;;;;;;;;;;16.36;48.13;100916.50;4960902;29;1914;-42
2024/02/25 00:56:58;;;;;;;;;;;;;;;16.08;47.66;100919.25;4959676;29;1158;-45
2024/02/25 00:59:24;;;;;;;;;;;;;;;15.87;47.12;100919.72;4960542;29;1484;-47
2024/02/25 01:01:50;;;;;;;;;;;;;;;16.56;47.87;100917.78;4960361;29;1111;-44
2024/02/25 01:04:18;;;;;;;;;;;;;;;17.91;46.25;100916.13;4960520;29;1049;-46
2024/02/25 01:06:43;;;;;;;;;;;;;;;16.52;48.33;100914.47;4960131;29;1514;-43
2024/02/25 01:09:10;;;;;;;;;;;;;;;16.07;47.72;100906.09;4957107;29;862;-43
2024/02/25 01:11:36;;;;;;;;;;;;;;;15.89;46.95;100915.19;4960635;29;1125;-44
2024/02/25 01:14:02;;;;;;;;;;;;;;;15.82;46.62;100915.69;4960215;29;1974;-44
2024/02/25 01:16:27;;;;;;;;;;;;;;;17.54;47.50;100914.41;4960007;29;1132;-43
2024/02/25 01:18:53;;;;;;;;;;;;;;;16.47;48.01;100913.09;4960089;29;1148;-42
2024/02/25 01:21:18;;;;;;;;;;;;;;;16.02;47.56;100901.97;4949575;29;1043;-45
2024/02/25 01:23:44;;;;;;;;;;;;;;;15.88;47.00;100902.03;4960310;29;1193;-45
2024/02/25 01:26:10;;;;;;;;;;;;;;;17.31;47.74;100899.22;4959767;29;1093;-42
2024/02/25 01:28:36;;;;;;;;;;;;;;;16.59;47.98;100898.97;4960320;29;1042;-43
2024/02/25 01:31:01;;;;;;;;;;;;;;;16.24;47.58;100900.50;4959835;29;1070;-45
2024/02/25 01:33:27;;;;;;;;;;;;;;;15.99;46.95;100896.88;4954965;29;1898;-45
2024/02/25 01:35:52;;;;;;;;;;;;;;;15.82;46.52;100895.31;4959976;29;1135;-44
2024/02/25 01:38:18;;;;;;;;;;;;;;;16.68;47.39;100899.28;4959815;29;1054;-43
2024/02/25 01:40:43;;;;;;;;;;;;;;;17.06;47.20;100903.66;4959885;29;1069;-44
2024/02/25 01:43:09;;;;;;;;;;;;;;;16.21;47.90;100891.88;4959854;29;1053;-43
2024/02/25 01:45:35;;;;;;;;;;;;;;;16.56;48.65;100893.88;4947773;29;1081;-45
2024/02/25 01:48:01;;;;;;;;;;;;;;;17.41;46.87;100886.09;4959828;29;1138;-46
2024/02/25 01:50:27;;;;;;;;;;;;;;;16.36;47.77;100890.81;4959918;29;1098;-47
2024/02/25 01:52:54;;;;;;;;;;;;;;;16.31;48.30;100889.44;4959573;28;1077;-45
2024/02/25 01:55:22;;;;;;;;;;;;;;;17.97;46.07;100887.22;4900863;29;1262033;-42
2024/02/25 01:57:48;;;;;;;;;;;;;;;16.61;47.74;100888.22;4926712;29;909;-42
2024/02/25 02:00:16;;;;;;;;;;;;;;;16.30;47.21;100887.75;4960514;28;1460;-45
2024/02/25 02:02:41;;;;;;;;;;;;;;;16.99;48.35;100889.94;4943488;29;1237;-45
2024/02/25 02:05:08;;;;;;;;;;;;;;;16.53;47.74;100886.13;4960236;29;1161;-44
2024/02/25 02:07:33;;;;;;;;;;;;;;;16.16;47.17;100884.25;4959970;29;1134;-44
2024/02/25 02:09:59;;;;;;;;;;;;;;;15.96;46.74;100886.44;4946968;29;1034;-44
2024/02/25 02:12:24;;;;;;;;;;;;;;;15.83;46.20;100890.88;4960157;29;1126;-46
2024/02/25 02:14:50;;;;;;;;;;;;;;;17.17;47.15;100900.22;4960023;29;2001;-46
2024/02/25 02:17:15;;;;;;;;;;;;;;;16.21;47.76;100900.69;4960549;29;1123;-41
2024/02/25 02:19:45;;;;;;;;;;;;;;;15.92;46.94;100895.53;4959396;29;1010;-45
2024/02/25 02:22:10;;;;;;;;;;;;;;;17.77;46.42;100903.88;4953173;29;875;-43
2024/02/25 02:24:36;;;;;;;;;;;;;;;16.47;47.49;100903.34;4960213;29;1069;-44
2024/02/25 02:27:01;;;;;;;;;;;;;;;16.06;46.99;100905.25;4960005;29;1111;-45
2024/02/25 02:29:27;;;;;;;;;;;;;;;15.94;46.77;100901.59;4959432;29;1096;-44
2024/02/25 02:31:56;;;;;;;;;;;;;;;17.05;47.63;100911.72;4957649;29;865;-42
2024/02/25 02:34:22;;;;;;;;;;;;;;;16.88;47.46;100911.97;4958379;29;1991;-43
2024/02/25 02:36:49;;;;;;;;;;;;;;;16.20;47.59;100898.97;4960045;29;1193;-45
2024/02/25 02:39:14;;;;;;;;;;;;;;;15.93;46.79;100907.00;4959380;29;1094;-43
2024/02/25 02:41:40;;;;;;;;;;;;;;;17.54;46.83;100901.97;4959951;29;1196;-44
2024/02/25 02:44:06;;;;;;;;;;;;;;;16.57;47.36;100898.22;4959461;29;1121;-48
2024/02/25 02:46:37;;;;;;;;;;;;;;;16.18;46.84;100902.72;4952039;29;916;-46
2024/02/25 02:49:02;;;;;;;;;;;;;;;15.96;46.59;100912.97;4959120;29;1046;-43
2024/02/25 02:51:28;;;;;;;;;;;;;;;15.81;45.85;100916.63;4959730;29;1121;-43
2024/02/25 02:53:53;;;;;;;;;;;;;;;17.58;46.88;100916.72;4959431;29;1976;-45
2024/02/25 02:56:19;;;;;;;;;;;;;;;16.77;47.61;100912.75;4958830;29;1092;-43
2024/02/25 02:58:48;;;;;;;;;;;;;;;16.00;47.71;100885.28;4957800;29;1126;-44
2024/02/25 03:01:14;;;;;;;;;;;;;;;15.92;47.01;100911.47;4959457;29;1084;-43
2024/02/25 03:03:40;;;;;;;;;;;;;;;15.82;46.57;100905.94;4959309;29;1127;-48
2024/02/25 03:06:05;;;;;;;;;;;;;;;17.25;47.45;100915.59;4958895;29;1156;-47
2024/02/25 03:08:31;;;;;;;;;;;;;;;16.48;47.84;100918.31;4957723;29;1066;-44
2024/02/25 03:10:56;;;;;;;;;;;;;;;16.07;47.43;100903.44;4951938;29;1042;-41
2024/02/25 03:13:22;;;;;;;;;;;;;;;15.89;46.77;100904.56;4958930;29;1907;-44
2024/02/25 03:15:47;;;;;;;;;;;;;;;16.89;47.63;100913.69;4959092;29;1034;-46
2024/02/25 03:18:12;;;;;;;;;;;;;;;17.65;46.25;100910.97;4958890;29;1041;-45
2024/02/25 03:20:38;;;;;;;;;;;;;;;16.48;47.92;100909.50;4957154;29;1069;-43
2024/02/25 03:23:04;;;;;;;;;;;;;;;16.08;47.22;100910.47;4957353;29;1319;-45
2024/02/25 03:25:29;;;;;;;;;;;;;;;15.84;46.57;100909.34;4959096;29;1114;-42
2024/02/25 03:27:55;;;;;;;;;;;;;;;15.82;47.02;100910.38;4958563;29;1116;-49
2024/02/25 03:30:20;;;;;;;;;;;;;;;16.93;47.07;100916.13;4958362;29;1180;-46
2024/02/25 03:32:46;;;;;;;;;;;;;;;16.06;47.89;100907.91;4956960;29;1026;-44
2024/02/25 03:35:11;;;;;;;;;;;;;;;17.19;47.41;100905.41;4950812;29;1915;-44
2024/02/25 03:37:39;;;;;;;;;;;;;;;16.87;47.34;100906.75;4958755;29;1045;-43
2024/02/25 03:40:05;;;;;;;;;;;;;;;16.30;47.29;100907.16;4958627;29;1042;-45
2024/02/25 03:42:30;;;;;;;;;;;;;;;16.03;46.79;100910.78;4958451;29;1106;-44
2024/02/25 03:44:56;;;;;;;;;;;;;;;16.86;47.78;100916.56;4956088;29;997;-44
2024/02/25 03:47:22;;;;;;;;;;;;;;;16.42;47.86;100916.09;4957141;29;1066;-47
2024/02/25 03:49:48;;;;;;;;;;;;;;;16.00;47.37;100910.97;4958693;29;1062;-48
2024/02/25 03:52:13;;;;;;;;;;;;;;;15.79;47.00;100906.13;4958456;29;1193;-46
2024/02/25 03:54:39;;;;;;;;;;;;;;;15.74;45.98;100913.56;4958020;29;1907;-43
2024/02/25 03:57:04;;;;;;;;;;;;;;;17.19;46.78;100911.59;4955572;29;1161;-46
2024/02/25 03:59:30;;;;;;;;;;;;;;;16.12;47.66;100896.88;4950435;29;1030;-45
2024/02/25 04:01:55;;;;;;;;;;;;;;;15.87;47.39;100908.25;4957867;29;1025;-44
2024/02/25 04:04:21;;;;;;;;;;;;;;;16.12;47.75;100909.28;4958316;29;1241;-41
2024/02/25 04:06:46;;;;;;;;;;;;;;;17.91;46.12;100906.31;4958150;29;1130;-46
2024/02/25 04:09:12;;;;;;;;;;;;;;;16.53;47.48;100899.41;4958224;29;1080;-47
2024/02/25 04:11:37;;;;;;;;;;;;;;;16.09;47.54;100897.09;4957815;29;1101;-44
2024/02/25 04:14:03;;;;;;;;;;;;;;;17.23;47.72;100909.56;4958379;29;1981;-43
2024/02/25 04:16:28;;;;;;;;;;;;;;;16.40;47.88;100908.22;4957371;28;1038;-46
2024/02/25 04:18:54;;;;;;;;;;;;;;;16.01;47.33;100904.72;4958313;29;1101;-44
2024/02/25 04:21:20;;;;;;;;;;;;;;;15.96;47.70;100907.66;4954570;29;1149;-45
2024/02/25 04:23:47;;;;;;;;;;;;;;;17.66;46.27;100905.53;4948840;29;1055;-43
2024/02/25 04:26:12;;;;;;;;;;;;;;;16.34;48.08;100902.50;4958059;29;1283;-44
2024/02/25 04:28:38;;;;;;;;;;;;;;;15.91;47.78;100907.13;4957786;29;1440;-44
2024/02/25 04:31:03;;;;;;;;;;;;;;;17.49;47.27;100917.41;4957891;29;1054;-43
2024/02/25 04:33:30;;;;;;;;;;;;;;;17.05;47.17;100909.06;4955797;29;1910;-44
2024/02/25 04:35:56;;;;;;;;;;;;;;;16.35;47.53;100907.69;4957865;29;1162;-42
2024/02/25 04:38:22;;;;;;;;;;;;;;;16.03;46.88;100905.47;4957945;29;1113;-42
2024/02/25 04:40:52;;;;;;;;;;;;;;;15.91;47.30;100909.78;4957710;29;1026;-41
2024/02/25 04:43:18;;;;;;;;;;;;;;;17.35;47.10;100913.13;4956433;29;1227;-45
2024/02/25 04:45:43;;;;;;;;;;;;;;;16.20;48.23;100900.81;4952877;29;1113;-48
2024/02/25 04:48:09;;;;;;;;;;;;;;;16.34;48.57;100916.63;4953017;29;1232;-47
2024/02/25 04:50:36;;;;;;;;;;;;;;;16.71;47.91;100920.31;4958214;29;1005;-42
2024/02/25 04:53:02;;;;;;;;;;;;;;;16.55;48.70;100920.56;4955463;29;1163;-43
2024/02/25 04:55:28;;;;;;;;;;;;;;;18.43;45.47;100916.59;4946357;29;1976;-44
2024/02/25 04:57:53;;;;;;;;;;;;;;;16.88;47.55;100921.78;4957309;29;1092;-42
2024/02/25 05:00:19;;;;;;;;;;;;;;;16.26;47.71;100917.16;4957671;29;1078;-41
2024/02/25 05:02:44;;;;;;;;;;;;;;;18.08;46.40;100909.50;4955285;29;1498;-39
2024/02/25 05:05:10;;;;;;;;;;;;;;;16.80;47.76;100918.81;4957183;29;1023;-41
2024/02/25 05:07:35;;;;;;;;;;;;;;;16.40;47.36;100923.28;4948907;28;1014;-42
2024/02/25 05:10:01;;;;;;;;;;;;;;;16.11;47.37;100918.22;4953360;29;1108;-45
2024/02/25 05:12:26;;;;;;;;;;;;;;;15.99;46.69;100915.44;4957309;29;1153;-40
2024/02/25 05:14:52;;;;;;;;;;;;;;;17.52;44.40;100914.53;4945465;29;1906;-46
2024/02/25 05:17:18;;;;;;;;;;;;;;;17.05;45.29;100920.53;4957375;29;1213;-42
2024/02/25 05:19:43;;;;;;;;;;;;;;;16.84;45.68;100913.16;4953716;29;1034;-43
2024/02/25 05:22:09;;;;;;;;;;;;;;;16.59;46.41;100914.03;4948119;29;1138;-42
2024/02/25 05:24:35;;;;;;;;;;;;;;;16.47;47.03;100926.38;4957566;28;1085;-44
2024/02/25 05:27:00;;;;;;;;;;;;;;;16.30;47.40;100935.53;4956042;28;1091;-46
2024/02/25 05:29:26;;;;;;;;;;;;;;;16.14;47.51;100933.91;4960349;29;1190;-45
2024/02/25 05:31:51;;;;;;;;;;;;;;;16.05;48.14;100940.69;4960765;29;2880;-43
2024/02/25 05:34:17;;;;;;;;;;;;;;;15.81;48.44;100952.00;4959555;29;1907;-44
2024/02/25 05:36:42;;;;;;;;;;;;;;;15.81;48.63;100953.78;4960444;29;1281;-47
2024/02/25 05:39:08;;;;;;;;;;;;;;;15.74;48.72;100946.25;4960136;29;1225;-42
2024/02/25 05:41:34;;;;;;;;;;;;;;;15.66;48.70;100952.03;4959623;29;1488;-45
2024/02/25 05:44:00;;;;;;;;;;;;;;;15.50;49.02;100954.84;4957295;29;1232;-45
2024/02/25 05:46:25;;;;;;;;;;;;;;;15.40;49.23;100948.44;4960240;29;1101;-43
2024/02/25 05:48:51;;;;;;;;;;;;;;;15.30;49.72;100946.38;4960733;29;1077;-41
2024/02/25 05:51:16;;;;;;;;;;;;;;;15.24;49.52;100946.78;4960655;29;1538;-43
2024/02/25 05:53:42;;;;;;;;;;;;;;;15.21;49.48;100952.28;4960329;29;1960;-42
2024/02/25 05:56:07;;;;;;;;;;;;;;;16.22;48.04;100944.00;4954165;29;1055;-43
2024/02/25 05:58:34;;;;;;;;;;;;;;;17.34;45.40;100943.34;4953475;29;1129;-45
2024/02/25 06:01:00;;;;;;;;;;;;;;;16.40;47.49;100939.22;4959275;29;2437;-43
2024/02/25 06:03:26;;;;;;;;;;;;;;;15.89;48.63;100954.13;4960437;29;1208;-48
2024/02/25 06:05:56;;;;;;;;;;;;;;;15.62;49.41;100947.88;4960037;29;1045;-48
2024/02/25 06:08:22;;;;;;;;;;;;;;;15.55;49.71;100944.78;4960378;29;1006;-45
2024/02/25 06:10:48;;;;;;;;;;;;;;;15.45;49.53;100950.81;4959120;29;894;-47
2024/02/25 06:13:13;;;;;;;;;;;;;;;15.28;49.99;100953.56;4960047;29;1081;-45
2024/02/25 06:15:39;;;;;;;;;;;;;;;15.65;49.88;100947.69;4959406;29;2001;-46
2024/02/25 06:18:04;;;;;;;;;;;;;;;17.16;45.93;100951.69;4960428;29;1033;-44
2024/02/25 06:20:31;;;;;;;;;;;;;;;16.53;47.14;100950.69;4947076;29;1152;-43
2024/02/25 06:22:56;;;;;;;;;;;;;;;15.94;48.53;100946.72;4959778;29;855;-43
2024/02/25 06:25:21;;;;;;;;;;;;;;;15.69;49.39;100951.00;4958522;29;950;-43
2024/02/25 06:27:47;;;;;;;;;;;;;;;15.53;49.65;100935.25;4959200;29;937;-42
2024/02/25 06:30:13;;;;;;;;;;;;;;;15.40;49.87;100941.34;4959291;29;1042;-47
2024/02/25 06:32:39;;;;;;;;;;;;;;;15.33;49.90;100936.53;4958731;29;2673;-45
2024/02/25 06:35:04;;;;;;;;;;;;;;;15.85;49.70;100942.84;4951927;29;2014;-42
2024/02/25 06:37:31;;;;;;;;;;;;;;;17.20;45.97;100941.69;4951975;29;1157;-41
2024/02/25 06:39:56;;;;;;;;;;;;;;;16.62;46.86;100943.91;4953285;28;1022;-48
2024/02/25 06:42:22;;;;;;;;;;;;;;;16.00;48.74;100943.66;4949275;29;1131;-45
2024/02/25 06:44:47;;;;;;;;;;;;;;;15.79;49.29;100940.63;4957395;29;1374;-42
2024/02/25 06:47:13;;;;;;;;;;;;;;;15.60;49.54;100952.44;4951285;29;1034;-45
2024/02/25 06:49:42;;;;;;;;;;;;;;;15.51;49.90;100950.41;4958142;29;1403;-44
2024/02/25 06:52:07;;;;;;;;;;;;;;;15.36;49.94;100949.59;4958830;29;1205;-46
2024/02/25 06:54:33;;;;;;;;;;;;;;;15.27;50.40;100954.53;4959107;29;1989;-46
2024/02/25 06:56:58;;;;;;;;;;;;;;;16.58;47.83;100961.00;4959305;29;1045;-46
2024/02/25 06:59:24;;;;;;;;;;;;;;;17.38;45.62;100958.94;4955900;29;929;-45
2024/02/25 07:01:50;;;;;;;;;;;;;;;16.38;47.75;100952.59;4957462;29;2562;-46
2024/02/25 07:04:15;;;;;;;;;;;;;;;15.91;49.18;100942.44;4959553;29;1054;-42
2024/02/25 07:06:41;;;;;;;;;;;;;;;15.67;49.44;100947.59;4959686;29;1172;-47
2024/02/25 07:09:06;;;;;;;;;;;;;;;15.52;49.68;100941.47;4946086;29;1125;-43
2024/02/25 07:11:32;;;;;;;;;;;;;;;15.39;50.41;100952.03;4956437;29;901;-47
2024/02/25 07:13:57;;;;;;;;;;;;;;;15.38;50.05;100959.13;4959197;29;2071;-47
2024/02/25 07:16:23;;;;;;;;;;;;;;;16.82;47.48;100965.56;4959348;29;1069;-46
2024/02/25 07:18:48;;;;;;;;;;;;;;;16.83;46.92;100966.41;4958942;29;1046;-43
2024/02/25 07:21:14;;;;;;;;;;;;;;;16.09;48.54;100962.56;4957578;29;1182;-44
2024/02/25 07:23:43;;;;;;;;;;;;;;;15.84;49.12;100956.22;4953600;29;1089;-42
2024/02/25 07:26:09;;;;;;;;;;;;;;;15.62;49.61;100961.16;4958872;29;1077;-44
2024/02/25 07:28:35;;;;;;;;;;;;;;;15.52;50.30;100955.59;4945708;29;1280;-43
2024/02/25 07:31:03;;;;;;;;;;;;;;;15.73;49.84;100949.00;4956945;29;2537;-47
2024/02/25 07:33:29;;;;;;;;;;;;;;;17.22;46.22;100951.25;4956592;29;1976;-41
2024/02/25 07:35:55;;;;;;;;;;;;;;;16.61;47.26;100952.84;4957391;29;1064;-43
2024/02/25 07:38:20;;;;;;;;;;;;;;;16.05;48.96;100951.31;4955995;29;1319;-42
2024/02/25 07:40:46;;;;;;;;;;;;;;;15.85;49.31;100939.38;4958117;29;1292;-42
2024/02/25 07:43:11;;;;;;;;;;;;;;;15.62;49.76;100929.31;4958067;29;1083;-43
2024/02/25 07:45:37;;;;;;;;;;;;;;;15.52;50.00;100934.38;4957761;29;1188;-44
2024/02/25 07:48:03;;;;;;;;;;;;;;;15.38;50.69;100934.44;4956351;29;1257;-43
2024/02/25 07:50:29;;;;;;;;;;;;;;;15.48;50.62;100927.56;4956915;28;1324;-43
2024/02/25 07:52:54;;;;;;;;;;;;;;;16.95;47.26;100932.81;4958367;29;1186;-42
2024/02/25 07:55:20;;;;;;;;;;;;;;;16.90;46.98;100935.78;4957410;29;1902;-42
2024/02/25 07:57:45;;;;;;;;;;;;;;;16.23;48.83;100932.44;4957635;29;1241;-47
2024/02/25 08:00:11;;;;;;;;;;;;;;;15.89;49.64;100936.41;4956769;29;1233;-44
2024/02/25 08:02:37;;;;;;;;;;;;;;;15.64;50.06;100926.56;4956292;29;2424;-45
2024/02/25 08:05:02;;;;;;;;;;;;;;;15.55;50.49;100928.88;4950754;29;1499;-43
2024/02/25 08:07:28;;;;;;;;;;;;;;;15.39;50.41;100925.53;4948198;29;1619;-46
2024/02/25 08:09:53;;;;;;;;;;;;;;;16.51;48.50;100928.72;4952061;29;1263;-41
2024/02/25 08:12:19;;;;;;;;;;;;;;;17.34;46.13;100919.41;4954279;29;1194;-44
2024/02/25 08:14:44;;;;;;;;;;;;;;;16.33;48.31;100917.56;4958234;29;1965;-43
2024/02/25 08:17:12;;;;;;;;;;;;;;;15.95;49.27;100924.50;4957833;29;975;-42
2024/02/25 08:19:39;;;;;;;;;;;;;;;15.77;49.97;100921.28;4957051;29;1129;-45
2024/02/25 08:22:04;;;;;;;;;;;;;;;15.65;50.36;100933.56;4956489;29;1058;-40
2024/02/25 08:24:30;;;;;;;;;;;;;;;15.46;50.53;100932.16;4945293;29;892;-44
2024/02/25 08:26:56;;;;;;;;;;;;;;;15.37;50.64;100922.97;4951867;29;1142;-42
2024/02/25 08:29:21;;;;;;;;;;;;;;;16.84;47.91;100917.63;4958160;29;1110;-43
2024/02/25 08:31:49;;;;;;;;;;;;;;;17.23;46.76;100920.19;4957780;29;2479;-44
2024/02/25 08:34:14;;;;;;;;;;;;;;;16.39;48.78;100908.34;4954854;29;1893;-45
2024/02/25 08:36:40;;;;;;;;;;;;;;;16.00;49.41;100905.66;4938665;29;1434;-41
2024/02/25 08:39:05;;;;;;;;;;;;;;;15.72;49.94;100904.84;4957801;29;886;-41
2024/02/25 08:41:31;;;;;;;;;;;;;;;15.62;50.38;100913.41;4957566;29;1152;-41
2024/02/25 08:43:57;;;;;;;;;;;;;;;15.45;50.83;100909.22;4957584;29;1025;-44
2024/02/25 08:46:22;;;;;;;;;;;;;;;15.38;51.17;100918.53;4957471;29;1081;-45
2024/02/25 08:48:48;;;;;;;;;;;;;;;16.79;48.05;100923.25;4954967;29;935;-44
2024/02/25 08:51:14;;;;;;;;;;;;;;;17.16;46.73;100925.13;4945605;29;1162;-42
2024/02/25 08:53:39;;;;;;;;;;;;;;;16.31;48.92;100927.47;4952922;29;1952;-42
2024/02/25 08:56:06;;;;;;;;;;;;;;;15.89;50.09;100932.91;4954295;29;1117;-42
2024/02/25 08:58:31;;;;;;;;;;;;;;;15.73;50.13;100922.47;4957375;29;1301;-40
2024/02/25 09:00:57;;;;;;;;;;;;;;;15.62;50.60;100916.06;4956625;29;2714;-43
2024/02/25 09:03:23;;;;;;;;;;;;;;;15.38;51.30;100924.66;4958681;28;1269;-43
2024/02/25 09:05:49;;;;;;;;;;;;;;;15.97;50.06;100927.06;4961080;29;1037;-46
2024/02/25 09:08:14;;;;;;;;;;;;;;;17.29;46.78;100916.22;4960797;29;1252;-41
2024/02/25 09:10:40;;;;;;;;;;;;;;;16.62;48.05;100925.31;4960900;29;1205;-42
2024/02/25 09:13:05;;;;;;;;;;;;;;;16.02;49.28;100923.19;4960555;29;1174;-47
2024/02/25 09:15:32;;;;;;;;;;;;;;;15.81;49.96;100925.47;4960505;29;1911;-45
2024/02/25 09:18:00;;;;;;;;;;;;;;;15.62;50.78;100915.22;4960570;29;1237;-45
2024/02/25 09:20:27;;;;;;;;;;;;;;;15.52;50.89;100910.53;4959785;29;1264;-47
2024/02/25 09:22:53;;;;;;;;;;;;;;;15.36;51.11;100912.47;4960306;29;1348;-46
2024/02/25 09:25:18;;;;;;;;;;;;;;;16.61;48.76;100910.34;4960783;28;936;-44
2024/02/25 09:27:44;;;;;;;;;;;;;;;17.19;46.93;100911.59;4958154;29;1065;-46
2024/02/25 09:30:12;;;;;;;;;;;;;;;16.32;48.80;100909.69;4951017;29;1201;-45
2024/02/25 09:32:37;;;;;;;;;;;;;;;15.89;50.04;100904.56;4960823;29;2656;-48
2024/02/25 09:35:03;;;;;;;;;;;;;;;15.65;50.62;100907.91;4960572;29;1915;-46
2024/02/25 09:37:29;;;;;;;;;;;;;;;15.59;50.71;100902.16;4958832;29;1249;-44
2024/02/25 09:39:54;;;;;;;;;;;;;;;15.48;51.10;100906.38;4953811;29;1420;-42
2024/02/25 09:42:21;;;;;;;;;;;;;;;16.45;49.05;100902.59;4941445;29;1221;-46
2024/02/25 09:44:50;;;;;;;;;;;;;;;17.20;46.77;100900.00;4955778;28;919;-44
2024/02/25 09:47:16;;;;;;;;;;;;;;;16.27;49.22;100897.63;4960538;29;1108;-46
2024/02/25 09:49:41;;;;;;;;;;;;;;;15.91;50.23;100894.69;4953214;29;889;-42
2024/02/25 09:52:09;;;;;;;;;;;;;;;15.68;50.50;100893.59;4943333;29;1102;-44
2024/02/25 09:54:35;;;;;;;;;;;;;;;15.57;50.59;100888.16;4960273;29;1976;-47
2024/02/25 09:57:01;;;;;;;;;;;;;;;15.45;50.78;100892.47;4960705;29;1149;-44
2024/02/25 09:59:26;;;;;;;;;;;;;;;15.86;50.83;100894.16;4960550;29;1002;-43
2024/02/25 10:01:52;;;;;;;;;;;;;;;17.20;47.26;100886.69;4960096;29;2569;-43
2024/02/25 10:04:18;;;;;;;;;;;;;;;16.81;47.77;100883.31;4959828;29;1013;-40
2024/02/25 10:06:44;;;;;;;;;;;;;;;16.19;49.49;100875.19;4960135;29;1521;-44
2024/02/25 10:09:11;;;;;;;;;;;;;;;15.92;49.88;100876.97;4959791;29;1237;-44
2024/02/25 10:11:38;;;;;;;;;;;;;;;15.69;50.60;100874.09;4959539;29;1106;-43
2024/02/25 10:14:03;;;;;;;;;;;;;;;15.56;50.76;100876.72;4958530;28;1906;-43
2024/02/25 10:16:29;;;;;;;;;;;;;;;15.50;50.75;100877.09;4959845;29;1304;-41
2024/02/25 10:18:54;;;;;;;;;;;;;;;16.88;48.19;100879.25;4958992;29;1404;-42
2024/02/25 10:21:20;;;;;;;;;;;;;;;16.91;47.60;100872.84;4958426;29;1295;-43
2024/02/25 10:23:54;;;;;;;;;;;;;;;16.20;49.40;100876.91;4959501;29;1347;-43
2024/02/25 10:26:21;;;;;;;;;;;;;;;15.88;50.12;100867.53;4942803;29;1313;-44
2024/02/25 10:28:46;;;;;;;;;;;;;;;15.73;50.23;100864.13;4958238;29;1241;-42
2024/02/25 10:31:14;;;;;;;;;;;;;;;15.57;51.07;100862.50;4959641;29;2381;-45
2024/02/25 10:33:40;;;;;;;;;;;;;;;15.49;51.06;100852.41;4959819;28;1911;-43
2024/02/25 10:36:07;;;;;;;;;;;;;;;15.66;50.81;100853.91;4959693;29;1050;-44
2024/02/25 10:38:44;;;;;;;;;;;;;;;17.11;47.57;100850.19;4959750;29;1113;-44
2024/02/25 10:41:10;;;;;;;;;;;;;;;16.50;48.45;100843.84;4959281;29;1053;-41
2024/02/25 10:43:36;;;;;;;;;;;;;;;16.03;49.76;100849.75;4942706;29;1089;-42
2024/02/25 10:46:05;;;;;;;;;;;;;;;15.88;50.19;100848.97;4959619;29;1093;-43
2024/02/25 10:48:30;;;;;;;;;;;;;;;15.65;51.04;100836.31;4945735;29;1343;-44
2024/02/25 10:50:56;;;;;;;;;;;;;;;15.62;50.80;100838.31;4959485;29;891;-41
2024/02/25 10:53:24;;;;;;;;;;;;;;;17.09;47.64;100839.66;4959065;29;1307;-46
2024/02/25 10:55:52;;;;;;;;;;;;;;;16.84;47.71;100832.59;4959126;29;1903;-42
2024/02/25 10:58:19;;;;;;;;;;;;;;;16.27;49.46;100831.25;4957535;29;1136;-42
2024/02/25 11:00:48;;;;;;;;;;;;;;;15.98;49.92;100820.00;4959418;29;2548;-41
2024/02/25 11:03:13;;;;;;;;;;;;;;;15.79;50.27;100823.91;4958943;29;1106;-44
2024/02/25 11:05:41;;;;;;;;;;;;;;;15.66;50.70;100815.94;4959061;29;1046;-43
2024/02/25 11:08:09;;;;;;;;;;;;;;;15.51;51.11;100816.03;4959124;29;1081;-45
2024/02/25 11:10:37;;;;;;;;;;;;;;;15.48;51.30;100816.22;4959470;29;1098;-45
2024/02/25 11:13:03;;;;;;;;;;;;;;;16.95;48.15;100816.72;4958011;29;1028;-46
2024/02/25 11:15:28;;;;;;;;;;;;;;;16.88;47.62;100804.84;4958244;29;1907;-46
2024/02/25 11:17:55;;;;;;;;;;;;;;;16.21;49.40;100806.94;4958805;29;1221;-46
2024/02/25 11:20:27;;;;;;;;;;;;;;;15.94;50.15;100805.22;4959039;29;1345;-44
2024/02/25 11:22:52;;;;;;;;;;;;;;;15.65;50.75;100801.81;4958744;28;1101;-41
2024/02/25 11:25:24;;;;;;;;;;;;;;;15.62;50.99;100795.88;4945559;29;1098;-43
2024/02/25 11:27:56;;;;;;;;;;;;;;;15.55;51.03;100790.13;4951744;29;1018;-45
2024/02/25 11:30:22;;;;;;;;;;;;;;;16.08;50.01;100796.34;4958891;29;1133;-44
2024/02/25 11:32:48;;;;;;;;;;;;;;;17.32;47.26;100788.38;4958681;29;2786;-45
2024/02/25 11:35:15;;;;;;;;;;;;;;;16.71;48.33;100784.84;4958895;29;1903;-41
2024/02/25 11:37:43;;;;;;;;;;;;;;;16.12;49.62;100788.06;4953566;29;1224;-41
2024/02/25 11:40:09;;;;;;;;;;;;;;;15.91;50.34;100785.91;4953077;29;1315;-47
2024/02/25 11:42:35;;;;;;;;;;;;;;;15.68;50.55;100771.63;4956466;29;1268;-43
2024/02/25 11:45:00;;;;;;;;;;;;;;;15.60;50.83;100774.78;4948805;29;1151;-45
2024/02/25 11:47:26;;;;;;;;;;;;;;;15.51;50.96;100778.91;4958795;29;1057;-43
2024/02/25 11:49:53;;;;;;;;;;;;;;;15.36;51.24;100766.69;4957938;29;1039;-46
2024/02/25 11:52:18;;;;;;;;;;;;;;;15.96;50.94;100771.50;4958176;29;1126;-42
2024/02/25 11:54:44;;;;;;;;;;;;;;;17.22;47.45;100770.47;4958166;29;1968;-44
2024/02/25 11:57:09;;;;;;;;;;;;;;;16.58;48.95;100775.09;4958283;29;1189;-48
2024/02/25 11:59:35;;;;;;;;;;;;;;;16.11;49.96;100774.91;4934880;29;1137;-42
2024/02/25 12:02:01;;;;;;;;;;;;;;;15.79;50.59;100774.38;4951568;29;2541;-45
2024/02/25 12:04:26;;;;;;;;;;;;;;;15.65;50.85;100775.31;4940813;29;1066;-43
2024/02/25 12:06:52;;;;;;;;;;;;;;;15.52;51.12;100775.31;4957796;29;1165;-44
2024/02/25 12:09:20;;;;;;;;;;;;;;;15.42;51.25;100774.22;4946406;29;1043;-44
2024/02/25 12:11:46;;;;;;;;;;;;;;;15.29;51.45;100776.84;4957390;29;1102;-42
2024/02/25 12:14:14;;;;;;;;;;;;;;;16.59;49.32;100767.97;4956574;29;1974;-42
2024/02/25 12:16:40;;;;;;;;;;;;;;;17.19;47.54;100776.03;4954929;29;1243;-41
2024/02/25 12:19:05;;;;;;;;;;;;;;;16.26;49.74;100771.16;4957195;29;1240;-45
2024/02/25 12:21:31;;;;;;;;;;;;;;;15.91;50.73;100770.00;4923851;29;1351;-41
2024/02/25 12:24:05;;;;;;;;;;;;;;;15.72;51.37;100770.44;4957838;29;1296;-45
2024/02/25 12:26:54;;;;;;;;;;;;;;;15.66;50.91;100768.22;4957687;29;1051;-43
2024/02/25 12:29:20;;;;;;;;;;;;;;;15.32;51.59;100766.03;4956964;29;1327;-44
2024/02/25 12:31:45;;;;;;;;;;;;;;;15.46;52.05;100769.56;4955971;29;1973;-45
2024/02/25 12:34:11;;;;;;;;;;;;;;;16.95;48.40;100770.72;4958462;29;1915;-46
2024/02/25 12:36:37;;;;;;;;;;;;;;;16.87;48.13;100766.78;4958274;28;1192;-43
2024/02/25 12:39:03;;;;;;;;;;;;;;;16.27;49.80;100756.06;4948343;29;887;-46
2024/02/25 12:41:32;;;;;;;;;;;;;;;15.88;50.64;100753.47;4961931;29;1062;-48